< < Back
Terminal Aerodrome Forecast


Current Version              Previous Versions:   1  2  3  4  5  6  7  8  9  

Terminal Aerodrome Forecast

521
FTUS44 KBMX 211300 AAA
TAFBHM
TAF AMD
KBHM 211345Z 2114/2212 04005KT P6SM OVC007
      TEMPO 2115/2118 SCT008 OVC015
     FM211800 12006KT P6SM OVC025
     FM220300 12006KT P6SM OVC012
     FM220900 12005KT 5SM BR OVC008=

Latest METAR

650
SAUS70 KWBC 221000 RRA
MTRBHM
METAR KBHM 220953Z 12004KT 8SM OVC007 09/08 A2997 RMK AO2 SLP148
T00940083


USA.gov is the U.S. government's official web portal to all federal, state and local government web resources and services.